Time;durP1;ratioP1;P1;durP2;ratioP2;P2;SDS_P1;SDS_P2;PMS_P1;PMS_P2;Temp;Humidity;BMP_temperature;BMP_pressure;BME280_temperature;BME280_humidity;BME280_pressure;Samples;Min_cycle;Max_cycle;Signal;HPM_P1;HPM_P2
2021/03/27 00:00:14;;;;;;;43.53;14.85;;;4.90;99.90;;;;;;5020062;28;20198;-80
2021/03/27 00:02:52;;;;;;;35.85;14.93;;;4.80;99.90;;;;;;5031988;28;20217;-81
2021/03/27 00:05:26;;;;;;;35.25;15.23;;;4.80;99.90;;;;;;5041250;28;20244;-81
2021/03/27 00:08:14;;;;;;;41.03;15.80;;;4.70;99.90;;;;;;5031673;28;20202;-80
2021/03/27 00:10:54;;;;;;;43.33;15.40;;;4.70;99.90;;;;;;5035973;28;20683;-81
2021/03/27 00:13:57;;;;;;;36.95;15.02;;;4.70;99.90;;;;;;5025382;28;20209;-81
2021/03/27 00:16:39;;;;;;;37.15;15.02;;;4.80;99.90;;;;;;5025228;28;20194;-81
2021/03/27 00:19:20;;;;;;;36.95;14.73;;;4.70;99.90;;;;;;5036961;28;20205;-80
2021/03/27 00:21:56;;;;;;;35.78;15.05;;;4.70;99.90;;;;;;5026531;28;20200;-81
2021/03/27 00:24:53;;;;;;;39.35;14.35;;;4.80;99.90;;;;;;5035042;28;20205;-80
2021/03/27 00:27:24;;;;;;;41.58;14.05;;;4.70;99.90;;;;;;5034380;28;20298;-81
2021/03/27 00:29:55;;;;;;;34.40;14.07;;;4.60;99.90;;;;;;5019103;28;20270;-80
2021/03/27 00:32:25;;;;;;;37.80;12.75;;;4.60;99.90;;;;;;5020155;28;20297;-81
2021/03/27 00:34:56;;;;;;;32.60;12.88;;;4.60;99.90;;;;;;5035146;28;20695;-81
2021/03/27 00:37:25;;;;;;;44.40;14.73;;;4.60;99.90;;;;;;5015896;28;20765;-80
2021/03/27 00:40:13;;;;;;;34.50;13.70;;;4.60;99.90;;;;;;5018513;28;20217;-81
2021/03/27 00:42:44;;;;;;;35.90;13.52;;;4.60;99.90;;;;;;5036538;28;20287;-80
2021/03/27 00:45:20;;;;;;;33.55;13.20;;;4.60;99.90;;;;;;5035516;28;20229;-80
2021/03/27 00:47:53;;;;;;;41.90;14.10;;;4.70;99.90;;;;;;5023256;28;20629;-80
2021/03/27 00:50:30;;;;;;;36.63;14.80;;;4.70;99.90;;;;;;5031484;28;20686;-81
2021/03/27 00:53:01;;;;;;;39.95;12.95;;;4.80;99.90;;;;;;5035983;28;20216;-81
2021/03/27 00:55:48;;;;;;;38.60;14.15;;;4.70;99.90;;;;;;5018560;28;20233;-82
2021/03/27 00:58:27;;;;;;;32.40;13.80;;;4.80;99.90;;;;;;5016797;28;20220;-80
2021/03/27 01:00:59;;;;;;;30.42;13.00;;;4.80;99.90;;;;;;5016974;28;20762;-81
2021/03/27 01:03:39;;;;;;;32.33;14.02;;;4.70;99.90;;;;;;5032868;28;20222;-81
2021/03/27 01:06:09;;;;;;;33.53;12.35;;;4.70;99.90;;;;;;5016754;28;20564;-81
2021/03/27 01:08:37;;;;;;;31.38;12.75;;;4.80;99.90;;;;;;5017648;28;20206;-82
2021/03/27 01:11:11;;;;;;;31.38;12.98;;;4.70;99.90;;;;;;5017351;28;20191;-81
2021/03/27 01:13:50;;;;;;;36.17;13.23;;;4.70;99.90;;;;;;5003580;28;20206;-81
2021/03/27 01:16:20;;;;;;;36.95;12.23;;;4.80;99.90;;;;;;5001808;28;20203;-80
2021/03/27 01:18:50;;;;;;;36.95;13.85;;;4.80;99.90;;;;;;4998391;28;20190;-80
2021/03/27 01:21:28;;;;;;;33.95;13.25;;;4.90;99.90;;;;;;5012729;28;20202;-80
2021/03/27 01:24:01;;;;;;;45.28;14.15;;;4.90;99.90;;;;;;5015470;28;20199;-80
2021/03/27 01:26:51;;;;;;;31.52;13.75;;;4.90;99.90;;;;;;4997813;28;20198;-81
2021/03/27 01:29:38;;;;;;;36.63;14.05;;;4.90;99.90;;;;;;4999540;28;20202;-81
2021/03/27 01:32:16;;;;;;;40.70;15.40;;;4.90;99.90;;;;;;4997674;28;20681;-80
2021/03/27 01:35:03;;;;;;;35.50;13.68;;;4.90;99.90;;;;;;5017451;28;20202;-80
2021/03/27 01:37:47;;;;;;;37.22;13.82;;;4.80;99.90;;;;;;5018818;28;20202;-79
2021/03/27 01:40:26;;;;;;;36.15;14.82;;;4.90;99.90;;;;;;5004664;28;20203;-79
2021/03/27 01:43:07;;;;;;;38.15;15.00;;;4.80;99.90;;;;;;5020409;28;20197;-80
2021/03/27 01:45:54;;;;;;;36.00;13.98;;;4.80;99.90;;;;;;5018356;28;20252;-79
2021/03/27 01:48:51;;;;;;;42.40;14.60;;;4.80;99.90;;;;;;5006770;28;20220;-79
2021/03/27 01:51:55;;;;;;;41.83;14.57;;;4.80;99.90;;;;;;5022440;28;20211;-80
2021/03/27 01:54:46;;;;;;;37.13;14.02;;;4.80;99.90;;;;;;5026022;28;20254;-79
2021/03/27 01:57:12;;;;;;;36.45;14.45;;;4.80;99.90;;;;;;5018290;28;20685;-79
2021/03/27 01:59:57;;;;;;;48.00;15.13;;;4.70;99.90;;;;;;5022274;28;20209;-80
2021/03/27 02:02:34;;;;;;;36.60;14.10;;;4.70;99.90;;;;;;5028481;23;20284;-73
2021/03/27 02:05:03;;;;;;;39.40;15.18;;;4.70;99.90;;;;;;5066940;28;20836;-72
2021/03/27 02:07:58;;;;;;;37.63;14.85;;;4.70;99.90;;;;;;5079330;28;20263;-74
2021/03/27 02:10:39;;;;;;;43.88;14.65;;;4.80;99.90;;;;;;5082433;28;20234;-76
2021/03/27 02:13:14;;;;;;;40.38;14.32;;;4.80;99.90;;;;;;5060176;28;20301;-72
2021/03/27 02:16:00;;;;;;;39.58;14.18;;;4.80;99.90;;;;;;5082590;28;20204;-71
2021/03/27 02:18:41;;;;;;;39.85;14.85;;;4.80;99.90;;;;;;5061422;28;20195;-72
2021/03/27 02:21:32;;;;;;;50.88;16.27;;;4.80;99.90;;;;;;5080724;28;20275;-72
2021/03/27 02:24:16;;;;;;;46.63;14.52;;;4.80;99.90;;;;;;5079151;28;20200;-75
2021/03/27 02:27:01;;;;;;;46.03;15.68;;;4.80;99.90;;;;;;5063061;28;20245;-72
2021/03/27 02:29:58;;;;;;;39.42;14.95;;;4.70;99.90;;;;;;5078819;28;20209;-75
2021/03/27 02:32:41;;;;;;;41.92;15.55;;;4.80;99.90;;;;;;5075164;28;20281;-73
2021/03/27 02:35:06;;;;;;;41.92;15.52;;;4.80;99.90;;;;;;5078318;28;20230;-71
2021/03/27 02:37:49;;;;;;;40.33;15.38;;;4.80;99.90;;;;;;5061268;28;20196;-73
2021/03/27 02:40:26;;;;;;;40.72;15.68;;;4.80;99.90;;;;;;5078415;28;20674;-71
2021/03/27 02:43:04;;;;;;;37.38;15.43;;;4.70;99.90;;;;;;5059106;28;20200;-72
2021/03/27 02:45:35;;;;;;;42.08;15.48;;;4.80;99.90;;;;;;5078311;28;20256;-74
2021/03/27 02:48:45;;;;;;;39.25;14.90;;;4.70;99.90;;;;;;5081601;28;20729;-72
2021/03/27 02:51:25;;;;;;;39.05;15.55;;;4.70;99.90;;;;;;5059414;28;20240;-77
2021/03/27 02:54:32;;;;;;;42.75;15.07;;;4.70;99.90;;;;;;5069255;28;20208;-72
2021/03/27 02:57:02;;;;;;;42.05;15.25;;;4.70;99.90;;;;;;5054257;28;20201;-73
2021/03/27 02:59:50;;;;;;;41.58;16.20;;;4.60;99.90;;;;;;5072879;28;20342;-73
2021/03/27 03:02:34;;;;;;;41.22;15.00;;;4.60;99.90;;;;;;5074179;28;20226;-71
2021/03/27 03:05:46;;;;;;;37.55;15.23;;;4.60;99.90;;;;;;5067034;28;20207;-72
2021/03/27 03:08:47;;;;;;;43.80;15.15;;;4.60;99.90;;;;;;5043312;28;20288;-72
2021/03/27 03:11:55;;;;;;;41.90;16.00;;;4.60;99.90;;;;;;5072355;28;20196;-71
2021/03/27 03:14:27;;;;;;;43.83;15.02;;;4.60;99.90;;;;;;5048796;28;20306;-72
2021/03/27 03:17:03;;;;;;;43.53;15.90;;;4.50;99.90;;;;;;5069145;28;20199;-72
2021/03/27 03:19:57;;;;;;;47.53;16.10;;;4.60;99.90;;;;;;5069638;28;20228;-72
2021/03/27 03:22:36;;;;;;;41.08;16.27;;;4.60;99.90;;;;;;5073396;28;20192;-73
2021/03/27 03:25:12;;;;;;;45.63;16.80;;;4.60;99.90;;;;;;5070446;28;20208;-73
2021/03/27 03:27:48;;;;;;;47.67;15.57;;;4.50;99.90;;;;;;5048113;28;20553;-74
2021/03/27 03:30:33;;;;;;;48.20;15.40;;;4.50;99.90;;;;;;5049908;28;20208;-72
2021/03/27 03:33:23;;;;;;;39.45;14.43;;;4.50;99.90;;;;;;5068634;28;20231;-72
2021/03/27 03:36:09;;;;;;;43.10;15.63;;;4.50;99.90;;;;;;5075541;28;20189;-73
2021/03/27 03:38:40;;;;;;;46.25;16.40;;;4.50;99.90;;;;;;5069681;28;20213;-73
2021/03/27 03:41:43;;;;;;;36.78;14.98;;;4.50;99.90;;;;;;5068822;28;20638;-71
2021/03/27 03:44:33;;;;;;;41.28;16.20;;;4.50;99.90;;;;;;5069342;28;20204;-74
2021/03/27 03:47:11;;;;;;;41.28;16.48;;;4.50;99.90;;;;;;5069717;28;20436;-71
2021/03/27 03:49:56;;;;;;;53.92;16.63;;;4.40;99.90;;;;;;5069752;28;20207;-71
2021/03/27 03:52:39;;;;;;;48.83;17.25;;;4.40;99.90;;;;;;5071946;28;20327;-72
2021/03/27 03:55:38;;;;;;;43.28;15.93;;;4.40;99.90;;;;;;5068781;28;20665;-72
2021/03/27 03:58:16;;;;;;;49.58;16.85;;;4.40;99.90;;;;;;5048215;28;20185;-71
2021/03/27 04:01:00;;;;;;;44.65;16.65;;;4.50;99.90;;;;;;5052395;28;20713;-71
2021/03/27 04:03:46;;;;;;;48.97;17.95;;;4.40;99.90;;;;;;5065518;28;20220;-72
2021/03/27 04:06:19;;;;;;;51.03;17.85;;;4.40;99.90;;;;;;5066182;28;20205;-73
2021/03/27 04:09:06;;;;;;;51.00;18.00;;;4.50;99.90;;;;;;5050209;28;20246;-72
2021/03/27 04:11:37;;;;;;;57.05;18.13;;;4.50;99.90;;;;;;5063537;28;20208;-71
2021/03/27 04:14:14;;;;;;;47.00;18.67;;;4.50;99.90;;;;;;5064441;28;20208;-73
2021/03/27 04:16:44;;;;;;;59.63;19.52;;;4.50;99.90;;;;;;5071957;28;20197;-71
2021/03/27 04:19:32;;;;;;;47.38;17.85;;;4.50;99.90;;;;;;5047872;28;20221;-71
2021/03/27 04:22:15;;;;;;;51.22;17.67;;;4.50;99.90;;;;;;5068032;28;20204;-72
2021/03/27 04:25:01;;;;;;;55.97;18.75;;;4.50;99.90;;;;;;5066951;28;20200;-71
2021/03/27 04:27:31;;;;;;;48.58;18.45;;;4.50;99.90;;;;;;5068607;28;20192;-73
2021/03/27 04:30:07;;;;;;;52.45;19.10;;;4.60;99.90;;;;;;5069009;28;20207;-73
2021/03/27 04:33:02;;;;;;;55.22;19.38;;;4.60;99.90;;;;;;5050424;28;20208;-72
2021/03/27 04:35:55;;;;;;;51.42;17.45;;;4.60;99.90;;;;;;5070913;28;20193;-71
2021/03/27 04:38:46;;;;;;;49.92;18.33;;;4.60;99.90;;;;;;5065591;28;20197;-72
2021/03/27 04:41:37;;;;;;;52.67;18.33;;;4.70;99.90;;;;;;5061214;28;20314;-72
2021/03/27 04:44:24;;;;;;;48.42;17.15;;;4.60;99.90;;;;;;5076522;28;20211;-73
2021/03/27 04:47:01;;;;;;;50.60;19.20;;;4.70;99.90;;;;;;5073480;28;20296;-71
2021/03/27 04:49:42;;;;;;;50.35;18.92;;;4.70;99.90;;;;;;5059635;28;20623;-71
2021/03/27 04:52:51;;;;;;;52.97;18.60;;;4.60;99.90;;;;;;5055734;28;20296;-74
2021/03/27 04:55:33;;;;;;;51.20;18.33;;;4.60;99.90;;;;;;5074831;28;20195;-71
2021/03/27 04:58:17;;;;;;;54.08;18.52;;;4.60;99.90;;;;;;5073403;28;20200;-71
2021/03/27 05:01:09;;;;;;;50.72;18.27;;;4.60;99.90;;;;;;5073199;28;20219;-73
2021/03/27 05:03:58;;;;;;;56.70;19.33;;;4.70;99.90;;;;;;5057606;28;20220;-73
2021/03/27 05:06:31;;;;;;;48.38;18.35;;;4.70;99.90;;;;;;5046412;28;20212;-72
2021/03/27 05:09:05;;;;;;;48.20;17.88;;;4.70;99.90;;;;;;5059500;28;20228;-71
2021/03/27 05:11:53;;;;;;;52.75;19.65;;;4.70;99.90;;;;;;5056668;28;20211;-71
2021/03/27 05:14:37;;;;;;;50.35;19.00;;;4.80;99.90;;;;;;5055598;28;20208;-71
2021/03/27 05:17:48;;;;;;;47.28;18.08;;;4.90;99.90;;;;;;5055586;28;20204;-74
2021/03/27 05:20:18;;;;;;;46.95;18.50;;;4.80;99.90;;;;;;5044958;28;20213;-74
2021/03/27 05:23:07;;;;;;;42.97;18.00;;;4.80;99.90;;;;;;5058669;28;20714;-71
2021/03/27 05:25:45;;;;;;;52.03;18.55;;;4.90;99.90;;;;;;5045655;28;20562;-73
2021/03/27 05:28:43;;;;;;;44.53;17.35;;;4.90;99.90;;;;;;5054677;28;20192;-71
2021/03/27 05:31:12;;;;;;;44.58;17.88;;;4.80;99.90;;;;;;5059237;28;20201;-71
2021/03/27 05:33:59;;;;;;;43.17;18.25;;;4.90;99.90;;;;;;5058796;28;20542;-71
2021/03/27 05:36:31;;;;;;;47.08;18.75;;;4.90;99.90;;;;;;5055098;28;20197;-72
2021/03/27 05:39:02;;;;;;;53.75;18.55;;;4.90;99.90;;;;;;5041188;28;20351;-71
2021/03/27 05:41:27;;;;;;;51.42;19.35;;;4.90;99.90;;;;;;5059161;28;20765;-72
2021/03/27 05:44:14;;;;;;;43.70;17.52;;;4.90;99.90;;;;;;5057154;28;20192;-73
2021/03/27 05:47:19;;;;;;;53.13;18.52;;;4.90;99.90;;;;;;5053014;28;20626;-71
2021/03/27 05:50:16;;;;;;;48.17;18.60;;;5.00;99.90;;;;;;5045533;28;20196;-71
2021/03/27 05:53:00;;;;;;;40.80;17.88;;;5.00;99.90;;;;;;5059034;28;20232;-72
2021/03/27 05:55:57;;;;;;;46.53;17.83;;;5.10;99.90;;;;;;5049909;28;20215;-71
2021/03/27 05:58:51;;;;;;;47.05;18.42;;;5.00;99.90;;;;;;5039898;28;20201;-75
2021/03/27 06:01:44;;;;;;;43.05;17.23;;;5.10;99.90;;;;;;5046841;28;20563;-71
2021/03/27 06:04:25;;;;;;;43.63;17.13;;;5.10;99.90;;;;;;5048232;28;20229;-72
2021/03/27 06:07:28;;;;;;;42.78;17.73;;;5.10;99.90;;;;;;5036626;28;20847;-74
2021/03/27 06:10:20;;;;;;;45.85;17.20;;;5.10;99.90;;;;;;5054590;28;20319;-73
2021/03/27 06:13:13;;;;;;;47.08;18.30;;;5.10;99.90;;;;;;5048099;28;20693;-71
2021/03/27 06:15:38;;;;;;;45.30;17.38;;;5.10;99.90;;;;;;5031413;28;20285;-72
2021/03/27 06:18:33;;;;;;;48.95;17.83;;;5.10;99.90;;;;;;5056868;28;20267;-72
2021/03/27 06:20:59;;;;;;;41.20;18.02;;;5.20;99.90;;;;;;5056151;28;20221;-71
2021/03/27 06:23:57;;;;;;;42.80;17.08;;;5.30;99.90;;;;;;5057361;28;20240;-71
2021/03/27 06:26:35;;;;;;;43.00;17.08;;;5.30;99.90;;;;;;5057867;28;20345;-73
2021/03/27 06:29:38;;;;;;;40.75;15.95;;;5.40;99.90;;;;;;5060680;28;20212;-74
2021/03/27 06:32:19;;;;;;;38.58;16.63;;;5.50;99.90;;;;;;5060582;28;20204;-74
2021/03/27 06:35:16;;;;;;;46.67;17.55;;;5.60;99.90;;;;;;5059562;28;20980;-72
2021/03/27 06:37:56;;;;;;;43.17;16.83;;;5.60;99.90;;;;;;5058450;28;20217;-71
2021/03/27 06:40:22;;;;;;;44.60;17.48;;;5.60;99.90;;;;;;5058838;28;20196;-71
2021/03/27 06:43:35;;;;;;;46.58;17.98;;;5.70;99.90;;;;;;5043935;28;20667;-71
2021/03/27 06:46:09;;;;;;;40.70;18.15;;;5.80;99.90;;;;;;4969734;28;20211;-72
2021/03/27 06:49:11;;;;;;;44.80;18.02;;;5.90;99.90;;;;;;4967157;28;20312;-71
2021/03/27 06:51:53;;;;;;;42.30;18.23;;;6.00;99.90;;;;;;5030437;28;20212;-71
2021/03/27 06:54:25;;;;;;;49.00;18.65;;;6.10;99.90;;;;;;5058709;28;20203;-72
2021/03/27 06:56:58;;;;;;;48.65;19.25;;;6.20;99.90;;;;;;5032195;28;20752;-72
2021/03/27 07:00:01;;;;;;;47.30;19.20;;;6.20;99.90;;;;;;5057834;28;20200;-74
2021/03/27 07:02:41;;;;;;;46.83;19.27;;;6.20;99.90;;;;;;5062032;28;22123;-71
2021/03/27 07:05:58;;;;;;;50.60;19.77;;;6.10;99.90;;;;;;5077104;28;20197;-71
2021/03/27 07:08:51;;;;;;;54.25;22.10;;;6.00;99.90;;;;;;5062989;28;20666;-71
2021/03/27 07:12:02;;;;;;;52.72;20.02;;;6.00;99.90;;;;;;5062201;28;20200;-71
2021/03/27 07:14:56;;;;;;;54.60;21.80;;;5.90;99.90;;;;;;5067267;28;20208;-75
2021/03/27 07:17:59;;;;;;;51.80;20.67;;;5.90;99.90;;;;;;5068755;28;20185;-72
2021/03/27 07:20:40;;;;;;;50.33;20.45;;;5.90;99.90;;;;;;5065558;28;21008;-71
2021/03/27 07:23:27;;;;;;;50.47;20.00;;;5.90;99.90;;;;;;5067638;28;20204;-72
2021/03/27 07:26:31;;;;;;;54.55;21.27;;;5.90;99.90;;;;;;5065826;28;20203;-72
2021/03/27 07:29:08;;;;;;;62.22;23.08;;;5.90;99.90;;;;;;5048865;28;20214;-71
2021/03/27 07:31:37;;;;;;;58.63;22.88;;;5.80;99.90;;;;;;5065977;28;20247;-72
2021/03/27 07:34:23;;;;;;;74.07;24.42;;;5.80;99.90;;;;;;5064557;28;20655;-71
2021/03/27 07:37:04;;;;;;;67.72;24.15;;;5.80;99.90;;;;;;5065529;28;20204;-71
2021/03/27 07:40:04;;;;;;;69.40;23.63;;;5.80;99.90;;;;;;5062360;28;20212;-72
2021/03/27 07:42:54;;;;;;;61.25;23.05;;;5.80;99.90;;;;;;5065087;28;20742;-72
2021/03/27 07:45:41;;;;;;;60.85;21.83;;;5.80;99.90;;;;;;5065178;28;20253;-71
2021/03/27 07:48:40;;;;;;;59.58;23.27;;;5.90;99.90;;;;;;5067778;28;20276;-74
2021/03/27 07:51:28;;;;;;;64.35;23.15;;;5.90;99.90;;;;;;5064751;28;20200;-73
2021/03/27 07:54:01;;;;;;;65.78;23.40;;;5.90;99.90;;;;;;5064856;28;20209;-73
2021/03/27 07:56:36;;;;;;;66.57;24.73;;;5.90;99.90;;;;;;5055452;28;20203;-73
2021/03/27 07:59:27;;;;;;;56.72;22.63;;;5.80;99.90;;;;;;5061108;28;20188;-72
2021/03/27 08:02:11;;;;;;;65.82;23.42;;;5.70;99.90;;;;;;5065101;28;20355;-74
2021/03/27 08:05:15;;;;;;;58.95;23.02;;;5.70;99.90;;;;;;5064400;28;20205;-74
2021/03/27 08:07:57;;;;;;;77.00;24.50;;;5.80;99.90;;;;;;5063831;28;20239;-76
2021/03/27 08:10:34;;;;;;;69.78;24.40;;;5.70;99.90;;;;;;5039140;28;20262;-74
2021/03/27 08:13:25;;;;;;;70.78;24.10;;;5.70;99.90;;;;;;5061321;28;20212;-74
2021/03/27 08:16:12;;;;;;;75.32;24.13;;;5.60;99.90;;;;;;5061865;28;20188;-74
2021/03/27 08:19:13;;;;;;;68.82;25.40;;;5.70;99.90;;;;;;5063468;28;20193;-75
2021/03/27 08:21:57;;;;;;;66.57;24.90;;;5.70;99.90;;;;;;5063052;28;20289;-73
2021/03/27 08:24:41;;;;;;;71.18;24.52;;;5.70;99.90;;;;;;5060085;28;20200;-75
2021/03/27 08:27:44;;;;;;;71.63;25.48;;;5.60;99.90;;;;;;5063134;28;20843;-73
2021/03/27 08:30:31;;;;;;;77.57;25.90;;;5.60;99.90;;;;;;5060778;28;20258;-75
2021/03/27 08:33:15;;;;;;;73.60;25.98;;;5.60;99.90;;;;;;5059780;28;20204;-73
2021/03/27 08:36:11;;;;;;;70.22;26.15;;;5.60;99.90;;;;;;5061700;28;20280;-75
2021/03/27 08:39:14;;;;;;;80.20;26.45;;;5.60;99.90;;;;;;5063437;28;20713;-73
2021/03/27 08:42:02;;;;;;;79.00;27.15;;;5.60;99.90;;;;;;5067940;28;20219;-75
2021/03/27 08:44:49;;;;;;;74.53;26.88;;;5.70;99.90;;;;;;5064190;28;20201;-72
2021/03/27 08:47:52;;;;;;;85.43;28.95;;;5.80;99.90;;;;;;5062365;28;20901;-73
2021/03/27 08:50:37;;;;;;;76.50;27.90;;;6.00;99.90;;;;;;5057708;28;21015;-72
2021/03/27 08:53:02;;;;;;;73.97;24.70;;;6.10;99.90;;;;;;5068570;28;20204;-74
2021/03/27 08:55:43;;;;;;;75.07;26.75;;;6.30;99.90;;;;;;5047010;28;20554;-73
2021/03/27 08:58:40;;;;;;;70.57;26.52;;;6.30;99.90;;;;;;5059779;28;20216;-74
2021/03/27 09:01:41;;;;;;;76.15;26.73;;;6.40;99.90;;;;;;5063143;28;20239;-74
2021/03/27 09:04:37;;;;;;;76.07;26.15;;;6.40;99.90;;;;;;5017580;28;20295;-74
2021/03/27 09:07:21;;;;;;;71.75;27.60;;;6.30;99.90;;;;;;5044361;28;20232;-74
2021/03/27 09:09:56;;;;;;;81.38;27.70;;;6.30;99.90;;;;;;5066697;28;20634;-73
2021/03/27 09:12:40;;;;;;;78.57;27.77;;;6.30;99.90;;;;;;5066473;28;20223;-73
2021/03/27 09:15:18;;;;;;;77.05;28.50;;;6.20;99.90;;;;;;5066650;28;20202;-72
2021/03/27 09:18:16;;;;;;;77.80;28.08;;;6.30;99.90;;;;;;5049722;28;20290;-73
2021/03/27 09:21:00;;;;;;;78.72;29.55;;;6.20;99.90;;;;;;5064748;28;20222;-73
2021/03/27 09:23:54;;;;;;;83.50;29.98;;;6.20;99.90;;;;;;5061653;28;20193;-71
2021/03/27 09:26:46;;;;;;;86.40;31.33;;;6.20;99.90;;;;;;5061317;28;21074;-73
2021/03/27 09:29:35;;;;;;;87.70;31.95;;;6.10;99.90;;;;;;5069179;28;20198;-71
2021/03/27 09:32:22;;;;;;;90.82;30.55;;;6.10;99.90;;;;;;5064232;28;20230;-72
2021/03/27 09:35:08;;;;;;;86.78;29.65;;;6.10;99.90;;;;;;5058277;28;20208;-72
2021/03/27 09:37:59;;;;;;;86.82;30.90;;;6.10;99.90;;;;;;5048193;28;20296;-73
2021/03/27 09:41:06;;;;;;;81.75;29.92;;;6.10;99.90;;;;;;5045356;28;20227;-75
2021/03/27 09:43:59;;;;;;;96.05;29.88;;;6.10;99.90;;;;;;5049101;28;20200;-74
2021/03/27 09:46:46;;;;;;;91.43;31.92;;;6.20;99.90;;;;;;5063735;28;20220;-74
2021/03/27 09:49:40;;;;;;;85.13;30.52;;;6.20;99.90;;;;;;5066089;28;20279;-73
2021/03/27 09:52:29;;;;;;;103.78;33.60;;;6.20;99.90;;;;;;5059014;28;20307;-72
2021/03/27 09:55:24;;;;;;;93.97;32.75;;;6.20;99.90;;;;;;5066137;28;20219;-75
2021/03/27 09:58:10;;;;;;;107.03;33.03;;;6.30;99.90;;;;;;5064709;28;20196;-73
2021/03/27 10:00:52;;;;;;;95.80;32.90;;;6.40;99.90;;;;;;5071902;28;20200;-74
2021/03/27 10:03:40;;;;;;;97.60;32.20;;;6.40;99.90;;;;;;5057638;28;20231;-75
2021/03/27 10:06:32;;;;;;;101.15;32.85;;;6.50;99.90;;;;;;5048758;28;20198;-72
2021/03/27 10:09:28;;;;;;;104.22;33.42;;;6.60;99.90;;;;;;5061215;28;20201;-74
2021/03/27 10:12:22;;;;;;;91.53;31.58;;;6.70;99.90;;;;;;5042836;28;20202;-72
2021/03/27 10:14:53;;;;;;;106.65;32.83;;;6.80;99.90;;;;;;5046443;28;20733;-73
2021/03/27 10:17:37;;;;;;;95.22;31.27;;;6.70;99.90;;;;;;5043514;28;20190;-75
2021/03/27 10:20:25;;;;;;;93.00;32.97;;;6.70;99.90;;;;;;5048707;28;20204;-74
2021/03/27 10:23:05;;;;;;;92.97;32.33;;;6.70;99.90;;;;;;5049226;28;20216;-75
2021/03/27 10:26:08;;;;;;;91.78;32.38;;;6.70;99.90;;;;;;5050342;28;20212;-73
2021/03/27 10:28:40;;;;;;;90.25;31.08;;;6.70;99.90;;;;;;5039959;28;20232;-73
2021/03/27 10:31:13;;;;;;;91.43;30.98;;;6.80;99.90;;;;;;5043642;28;20200;-73
2021/03/27 10:33:56;;;;;;;90.53;32.65;;;6.90;99.90;;;;;;5044174;28;20208;-73
2021/03/27 10:36:38;;;;;;;93.43;32.40;;;6.90;99.90;;;;;;5041733;28;20350;-74
2021/03/27 10:39:58;;;;;;;90.38;33.30;;;6.90;99.90;;;;;;5042265;28;20200;-74
2021/03/27 10:42:43;;;;;;;84.07;30.20;;;6.90;99.90;;;;;;5012142;28;20517;-75
2021/03/27 10:45:30;;;;;;;105.45;33.63;;;6.90;99.90;;;;;;5041973;28;20288;-74
2021/03/27 10:48:04;;;;;;;95.03;32.83;;;6.90;99.90;;;;;;5044821;28;20205;-74
2021/03/27 10:50:40;;;;;;;93.40;32.97;;;7.00;99.90;;;;;;5042929;28;20239;-72
2021/03/27 10:53:25;;;;;;;105.53;35.75;;;7.20;99.90;;;;;;5043103;28;20212;-74
2021/03/27 10:56:02;;;;;;;97.50;35.10;;;7.30;99.90;;;;;;5055529;28;20426;-73
2021/03/27 10:58:52;;;;;;;107.93;34.63;;;7.30;99.90;;;;;;5045943;28;20301;-74
2021/03/27 11:01:43;;;;;;;92.85;35.42;;;7.40;99.90;;;;;;5044325;28;20197;-73
2021/03/27 11:04:35;;;;;;;93.70;33.58;;;7.50;99.90;;;;;;5054115;28;20224;-75
2021/03/27 11:07:39;;;;;;;90.15;32.42;;;7.50;99.90;;;;;;5041609;28;20221;-73
2021/03/27 11:10:43;;;;;;;99.32;34.72;;;7.60;99.90;;;;;;5062591;28;20196;-73
2021/03/27 11:13:12;;;;;;;87.10;32.03;;;7.70;99.90;;;;;;5036059;28;20657;-73
2021/03/27 11:16:06;;;;;;;79.32;30.95;;;7.70;99.90;;;;;;5057405;28;20883;-74
2021/03/27 11:18:59;;;;;;;90.05;33.40;;;7.80;99.90;;;;;;5044437;28;20216;-73
2021/03/27 11:21:36;;;;;;;92.13;33.75;;;7.80;99.90;;;;;;5043163;28;20208;-73
2021/03/27 11:24:17;;;;;;;90.43;33.45;;;7.80;99.90;;;;;;5063665;28;20235;-73
2021/03/27 11:27:10;;;;;;;89.72;33.90;;;7.80;99.90;;;;;;5067465;28;20196;-73
2021/03/27 11:29:47;;;;;;;86.15;32.85;;;7.80;99.90;;;;;;5061884;28;20206;-72
2021/03/27 11:32:40;;;;;;;92.60;33.08;;;7.70;99.90;;;;;;5065854;28;20198;-74
2021/03/27 11:35:14;;;;;;;95.00;32.90;;;7.70;99.90;;;;;;5063826;28;20231;-73
2021/03/27 11:37:54;;;;;;;83.97;32.85;;;7.80;99.90;;;;;;5063337;28;20211;-73
2021/03/27 11:40:34;;;;;;;96.72;34.83;;;7.70;99.90;;;;;;5054690;28;20723;-73
2021/03/27 11:43:35;;;;;;;94.47;35.17;;;7.70;99.90;;;;;;5061844;28;20283;-72
2021/03/27 11:46:31;;;;;;;93.25;34.65;;;7.70;99.90;;;;;;5060136;28;20273;-73
2021/03/27 11:49:26;;;;;;;91.28;35.33;;;7.70;99.90;;;;;;5052471;28;20693;-72
2021/03/27 11:52:02;;;;;;;92.05;34.90;;;7.70;99.90;;;;;;5061103;28;20621;-74
2021/03/27 11:54:54;;;;;;;92.80;34.55;;;7.70;99.90;;;;;;5062057;28;20288;-75
2021/03/27 11:57:26;;;;;;;101.18;34.40;;;7.70;99.90;;;;;;5056134;28;20296;-73
2021/03/27 12:03:21;;;;;;;98.15;34.10;;;7.70;99.90;;;;;;5057384;28;20236;-72
2021/03/27 12:05:56;;;;;;;96.38;34.22;;;7.60;99.90;;;;;;5004806;28;20226;-72
2021/03/27 12:09:03;;;;;;;92.40;35.03;;;7.60;99.90;;;;;;5042289;28;20196;-73
2021/03/27 12:11:50;;;;;;;98.25;34.67;;;7.50;99.90;;;;;;4994310;28;20723;-72
2021/03/27 12:14:40;;;;;;;104.28;35.15;;;7.60;99.90;;;;;;5042035;28;20219;-73
2021/03/27 12:17:27;;;;;;;97.55;34.72;;;7.60;99.90;;;;;;5025923;28;20931;-73
2021/03/27 12:20:23;;;;;;;97.03;34.95;;;7.50;99.90;;;;;;5044973;28;20200;-73
2021/03/27 12:23:00;;;;;;;99.07;34.65;;;7.50;99.90;;;;;;5045253;28;20195;-74
2021/03/27 12:25:46;;;;;;;103.15;35.38;;;7.50;99.90;;;;;;5015397;28;20327;-73
2021/03/27 12:28:36;;;;;;;94.28;34.35;;;7.50;99.90;;;;;;5035207;28;20205;-76
2021/03/27 12:31:25;;;;;;;75.82;31.20;;;7.50;99.90;;;;;;5017429;28;20197;-75
2021/03/27 12:34:08;;;;;;;76.72;28.30;;;7.60;99.90;;;;;;5024254;28;20702;-72
2021/03/27 12:36:39;;;;;;;84.13;30.88;;;7.60;99.90;;;;;;5040757;28;21094;-73
2021/03/27 12:39:19;;;;;;;82.95;30.92;;;7.60;99.90;;;;;;5022380;28;20229;-73
2021/03/27 12:41:54;;;;;;;81.25;31.52;;;7.60;99.90;;;;;;5036604;28;20566;-74
2021/03/27 12:44:35;;;;;;;85.60;32.25;;;7.60;99.90;;;;;;5018627;28;20651;-74
2021/03/27 12:47:19;;;;;;;85.50;31.42;;;7.50;99.90;;;;;;5018359;28;20214;-75
2021/03/27 12:50:23;;;;;;;88.57;32.22;;;7.50;99.90;;;;;;5026117;28;20627;-75
2021/03/27 12:53:11;;;;;;;81.13;31.73;;;7.50;99.90;;;;;;5032936;28;20680;-75
2021/03/27 12:55:39;;;;;;;90.55;33.05;;;7.60;99.90;;;;;;5034947;28;20696;-74
2021/03/27 12:58:18;;;;;;;100.97;34.78;;;7.70;99.90;;;;;;5036241;28;20553;-74
2021/03/27 13:00:43;;;;;;;102.13;35.67;;;7.80;99.90;;;;;;5034077;28;20209;-75
2021/03/27 13:03:28;;;;;;;90.25;35.13;;;7.90;99.90;;;;;;5033576;28;20640;-74
2021/03/27 13:06:21;;;;;;;86.70;32.92;;;8.00;99.90;;;;;;5034789;28;20656;-73
2021/03/27 13:09:13;;;;;;;96.53;35.83;;;8.30;99.90;;;;;;5037852;28;20847;-73
2021/03/27 13:12:26;;;;;;;96.18;35.20;;;8.40;99.90;;;;;;5036105;28;20235;-76
2021/03/27 13:14:57;;;;;;;89.40;34.88;;;8.50;99.90;;;;;;5014820;28;20221;-74
2021/03/27 13:18:00;;;;;;;98.20;36.25;;;8.50;99.90;;;;;;5034222;28;20288;-74
2021/03/27 13:20:50;;;;;;;91.32;36.13;;;8.50;99.90;;;;;;5008857;28;20224;-74
2021/03/27 13:23:30;;;;;;;88.95;34.58;;;8.40;99.90;;;;;;5018066;28;20197;-74
2021/03/27 13:26:08;;;;;;;85.05;34.38;;;8.30;99.90;;;;;;5033317;28;20734;-74
2021/03/27 13:28:41;;;;;;;91.15;34.53;;;8.40;99.90;;;;;;5039192;28;20592;-74
2021/03/27 13:31:16;;;;;;;88.63;34.35;;;8.30;99.90;;;;;;5034966;28;20547;-74
2021/03/27 13:34:00;;;;;;;90.95;34.35;;;8.30;99.90;;;;;;5015550;28;20315;-75
2021/03/27 13:36:39;;;;;;;96.15;36.50;;;8.30;99.90;;;;;;5043420;28;20213;-73
2021/03/27 13:39:34;;;;;;;92.45;35.60;;;8.30;99.90;;;;;;5038621;28;20560;-75
2021/03/27 13:42:24;;;;;;;88.40;35.78;;;8.40;99.90;;;;;;5042198;28;20204;-74
2021/03/27 13:45:05;;;;;;;89.88;35.47;;;8.40;99.90;;;;;;5041476;28;20651;-75
2021/03/27 13:47:41;;;;;;;92.70;35.38;;;8.30;99.90;;;;;;5022991;28;20220;-74
2021/03/27 13:50:07;;;;;;;92.32;34.55;;;8.40;99.90;;;;;;5046844;28;20236;-73
2021/03/27 13:52:47;;;;;;;89.95;35.08;;;8.50;99.90;;;;;;5018587;28;20497;-73
2021/03/27 13:55:15;;;;;;;91.72;36.20;;;8.50;99.90;;;;;;5040504;28;20208;-73
2021/03/27 13:58:16;;;;;;;83.65;34.05;;;8.40;99.90;;;;;;5041732;28;20282;-74
2021/03/27 14:01:03;;;;;;;86.45;33.72;;;8.50;99.90;;;;;;5032618;28;20213;-77
2021/03/27 14:04:00;;;;;;;100.68;36.38;;;8.50;99.90;;;;;;5040842;28;20317;-74
2021/03/27 14:06:43;;;;;;;94.20;34.40;;;8.40;99.90;;;;;;5044763;28;20208;-73
2021/03/27 14:09:35;;;;;;;93.35;35.25;;;8.30;99.90;;;;;;5046354;28;20212;-75